Aérodrome :
LOGIN :

S'inscrire | Disclaimer

   EN    FR    IT 

 










Légende :    VFR   VFR Marginal   IFR   IFR Intensif   IFR Très Intensif
Visi : 
Plafond : 
>= 8 km
>= 3000ft
5 à 8 km
1000 à 3000 ft
1500m à 5 km
500 à 1000 ft
800 à 1500m
200 à 500 ft
< 800m
< 200 ft
Symboles :   Orages  Brouillard  Fortes neiges  Fortes précipitations  Vent > 20 kt
SIGMETs :   Divers  Orages  Givrage  Turbulence  Onde Orograph.  Cendres Volcan.







- Altitude de l'aérodrome : 1276 ft
- Code IATA : STR


EDDS - Stuttgart

DERNIER METAR :
  • 251150Z 29013KT 9999 SCT047 BKN055 14/03 Q1007 NOSIG

METARs EXPIRÉS :
  • 251120Z 29013KT 250V320 9999 SCT046 BKN056 14/04 Q1007 NOSIG
  • 251050Z 27014KT 230V290 9999 SCT046 BKN058 14/02 Q1007 NOSIG
  • 251020Z 26010KT 210V290 9999 SCT042 BKN053 13/03 Q1007 NOSIG
  • 250950Z 24008KT 190V290 9999 SCT042 BKN055 12/02 Q1008 NOSIG
  • 250920Z 24008KT 190V270 9999 FEW042 BKN055 12/02 Q1008 NOSIG

TAF COR TAF EDDS
Valide du 25 à 12h jusqu'au 26 à 12h UTC


251134Z 2512/2612 30010KT 9999 SCT040
PROB30
TEMPO 2512/2514 29015G25KT
BECMG 2517/2520 RA BKN012
TEMPO 2517/2524 4000 -RA
BECMG 2522/2601 35005KT
PROB40
TEMPO 2600/2609 2500 SNRA BKN008
PROB30
TEMPO 2600/2604 1200 SN
Pas de NOTAMs connus pour ce terrain.



MET'MAP, la Météo Aéronautique d'un coup d'oeil ! - Copyright ORBIFLY Décembre 2007 - Disclaimer

ORBIFLY MET'MAP TEAM :

Programmation & Développement : Alexandra Zaïnal
Conception & Développement : Baudouin d'Aumeries
Co-Programmation & Développement : Marc-Olivier Méhu
Soutien technique & logistique : Manuel Goepfert

Contact : metmap@orbifly.com




SOURCES & CREDITS :

   NOAA